Pagrindinis puslapis
METAR-TAF:

METAR-TAF

Oro uostai :

17 Rosado

Mossoró, Rio Grande do Norte, Brazilija

platuma: 05-12S, ilguma: 037-22W, Aukštis: 23 m

Dabartinis oras

Ataskaita buvo paskelbta 3 valandos ir 58 minutes, ne 20:00 UTC
Vėjas 3 kt iš Pietų/Pietvakarių
Temperatūra 27°C
Drėgmė 94%
Slėgis 1010 hPa
Matomumas 10 km arba daugiau
Su prošvaistėmis ne aukštis 1700 ft
Mažai debesys ne aukštis 3000 ft, aukštai iškilę kamuoliniai debesys.
Su prošvaistėmis ne aukštis 9000 ft
Liūtis kaimynystėje

METAR: SBMS 052000Z 20003KT 9999 VCSH BKN017 FEW030TCU BKN090 27/26 Q1010

Laikas: 20:58 (23:58 UTC)


TAF: trūkstamas

Orai ataskaitas ir orų prognozės (METAR, TAF).

turimą stotys yra geltonos ir raudonos taškus žemėlapyje.

Perkelti pele per norėdami pamatyti stoties vardą.

Tada spustelėkite, norėdami matyti oro stebėjimo ir prognozės.

Norėdami pakeisti žemėlapį: spustelėkite ant žalios mygtukų su juodo kryžiaus žemyn,; žalią mygtuką su brūkšneliu, jei norite nutolinti; arba žalių rodyklių gretimoms žemėlapius.


METAR-TAF: